sensor_id;sensor_type;location;lat;lon;timestamp;P1;durP1;ratioP1;P2;durP2;ratioP2
60243;SDS011;46106;51.468;5.814;2022-09-12T00:01:59;80.28;;;35.05;;
60243;SDS011;46106;51.468;5.814;2022-09-12T00:04:32;71.30;;;32.45;;
60243;SDS011;46106;51.468;5.814;2022-09-12T00:06:59;79.20;;;34.67;;
60243;SDS011;46106;51.468;5.814;2022-09-12T00:09:24;84.00;;;35.60;;
60243;SDS011;46106;51.468;5.814;2022-09-12T00:11:52;84.30;;;37.22;;
60243;SDS011;46106;51.468;5.814;2022-09-12T00:14:19;96.38;;;37.50;;
60243;SDS011;46106;51.468;5.814;2022-09-12T00:16:47;81.32;;;37.50;;
60243;SDS011;46106;51.468;5.814;2022-09-12T00:19:18;86.03;;;36.67;;
60243;SDS011;46106;51.468;5.814;2022-09-12T00:21:44;87.45;;;36.97;;
60243;SDS011;46106;51.468;5.814;2022-09-12T00:24:10;88.20;;;36.83;;
60243;SDS011;46106;51.468;5.814;2022-09-12T00:26:38;73.57;;;32.70;;
60243;SDS011;46106;51.468;5.814;2022-09-12T00:29:06;74.72;;;30.48;;
60243;SDS011;46106;51.468;5.814;2022-09-12T00:31:37;71.55;;;31.83;;
60243;SDS011;46106;51.468;5.814;2022-09-12T00:34:04;87.30;;;37.08;;
60243;SDS011;46106;51.468;5.814;2022-09-12T00:36:30;98.82;;;41.95;;
60243;SDS011;46106;51.468;5.814;2022-09-12T00:38:56;98.15;;;40.00;;
60243;SDS011;46106;51.468;5.814;2022-09-12T00:41:24;97.35;;;37.78;;
60243;SDS011;46106;51.468;5.814;2022-09-12T00:43:51;89.57;;;35.92;;
60243;SDS011;46106;51.468;5.814;2022-09-12T00:47:09;118.88;;;45.38;;
60243;SDS011;46106;51.468;5.814;2022-09-12T00:51:49;132.50;;;49.55;;
60243;SDS011;46106;51.468;5.814;2022-09-12T00:54:31;103.80;;;42.80;;
60243;SDS011;46106;51.468;5.814;2022-09-12T00:57:01;97.82;;;41.90;;
60243;SDS011;46106;51.468;5.814;2022-09-12T00:59:39;92.32;;;40.30;;
60243;SDS011;46106;51.468;5.814;2022-09-12T01:02:12;107.50;;;40.50;;
60243;SDS011;46106;51.468;5.814;2022-09-12T01:04:45;100.78;;;43.65;;
60243;SDS011;46106;51.468;5.814;2022-09-12T01:07:14;102.45;;;42.97;;
60243;SDS011;46106;51.468;5.814;2022-09-12T01:09:40;114.43;;;42.38;;
60243;SDS011;46106;51.468;5.814;2022-09-12T01:12:11;116.35;;;43.58;;
60243;SDS011;46106;51.468;5.814;2022-09-12T01:14:44;111.93;;;41.60;;
60243;SDS011;46106;51.468;5.814;2022-09-12T01:17:11;93.28;;;39.65;;
60243;SDS011;46106;51.468;5.814;2022-09-12T01:19:56;90.75;;;38.85;;
60243;SDS011;46106;51.468;5.814;2022-09-12T01:25:59;96.68;;;37.67;;
60243;SDS011;46106;51.468;5.814;2022-09-12T01:32:13;86.03;;;35.88;;
60243;SDS011;46106;51.468;5.814;2022-09-12T01:34:58;88.13;;;36.70;;
60243;SDS011;46106;51.468;5.814;2022-09-12T01:37:41;89.68;;;35.92;;
60243;SDS011;46106;51.468;5.814;2022-09-12T01:40:28;81.45;;;35.97;;
60243;SDS011;46106;51.468;5.814;2022-09-12T01:43:08;92.63;;;35.53;;
60243;SDS011;46106;51.468;5.814;2022-09-12T01:45:43;75.07;;;33.88;;
60243;SDS011;46106;51.468;5.814;2022-09-12T01:48:22;69.80;;;28.98;;
60243;SDS011;46106;51.468;5.814;2022-09-12T01:53:38;55.40;;;24.10;;
60243;SDS011;46106;51.468;5.814;2022-09-12T01:56:10;79.55;;;31.40;;
60243;SDS011;46106;51.468;5.814;2022-09-12T01:59:31;69.53;;;29.75;;
60243;SDS011;46106;51.468;5.814;2022-09-12T02:01:37;80.05;;;32.80;;
60243;SDS011;46106;51.468;5.814;2022-09-12T02:04:29;78.38;;;30.40;;
60243;SDS011;46106;51.468;5.814;2022-09-12T02:07:18;88.70;;;34.03;;
60243;SDS011;46106;51.468;5.814;2022-09-12T02:12:25;96.55;;;37.25;;
60243;SDS011;46106;51.468;5.814;2022-09-12T02:14:57;94.72;;;38.80;;
60243;SDS011;46106;51.468;5.814;2022-09-12T02:17:35;93.97;;;38.38;;
60243;SDS011;46106;51.468;5.814;2022-09-12T02:20:11;102.63;;;39.13;;
60243;SDS011;46106;51.468;5.814;2022-09-12T02:22:42;99.80;;;39.08;;
60243;SDS011;46106;51.468;5.814;2022-09-12T02:25:09;88.10;;;35.05;;
60243;SDS011;46106;51.468;5.814;2022-09-12T02:27:41;81.78;;;32.05;;
60243;SDS011;46106;51.468;5.814;2022-09-12T02:30:21;85.93;;;33.78;;
60243;SDS011;46106;51.468;5.814;2022-09-12T02:38:06;85.68;;;33.53;;
60243;SDS011;46106;51.468;5.814;2022-09-12T02:40:37;88.82;;;35.95;;
60243;SDS011;46106;51.468;5.814;2022-09-12T02:43:05;85.65;;;34.85;;
60243;SDS011;46106;51.468;5.814;2022-09-12T02:45:35;103.15;;;37.22;;
60243;SDS011;46106;51.468;5.814;2022-09-12T02:48:09;73.57;;;31.98;;
60243;SDS011;46106;51.468;5.814;2022-09-12T02:50:36;61.83;;;28.55;;
60243;SDS011;46106;51.468;5.814;2022-09-12T02:53:01;79.65;;;32.50;;
60243;SDS011;46106;51.468;5.814;2022-09-12T02:55:37;79.07;;;35.53;;
60243;SDS011;46106;51.468;5.814;2022-09-12T02:58:13;63.63;;;26.98;;
60243;SDS011;46106;51.468;5.814;2022-09-12T03:00:55;66.45;;;28.92;;
60243;SDS011;46106;51.468;5.814;2022-09-12T03:06:15;72.00;;;27.88;;
60243;SDS011;46106;51.468;5.814;2022-09-12T03:14:30;81.85;;;31.17;;
60243;SDS011;46106;51.468;5.814;2022-09-12T03:17:03;67.65;;;28.17;;
60243;SDS011;46106;51.468;5.814;2022-09-12T03:25:13;79.43;;;32.20;;
60243;SDS011;46106;51.468;5.814;2022-09-12T03:27:56;92.03;;;33.38;;
60243;SDS011;46106;51.468;5.814;2022-09-12T03:30:26;86.28;;;33.35;;
60243;SDS011;46106;51.468;5.814;2022-09-12T03:32:58;92.38;;;34.42;;
60243;SDS011;46106;51.468;5.814;2022-09-12T03:35:25;84.72;;;32.72;;
60243;SDS011;46106;51.468;5.814;2022-09-12T03:37:55;78.13;;;31.67;;
60243;SDS011;46106;51.468;5.814;2022-09-12T03:40:24;93.00;;;34.15;;
60243;SDS011;46106;51.468;5.814;2022-09-12T03:42:54;112.78;;;37.15;;
60243;SDS011;46106;51.468;5.814;2022-09-12T03:45:21;111.82;;;40.30;;
60243;SDS011;46106;51.468;5.814;2022-09-12T03:47:48;99.80;;;33.83;;
60243;SDS011;46106;51.468;5.814;2022-09-12T03:50:14;97.65;;;33.60;;
60243;SDS011;46106;51.468;5.814;2022-09-12T03:52:42;83.68;;;32.33;;
60243;SDS011;46106;51.468;5.814;2022-09-12T03:55:12;81.43;;;31.40;;
60243;SDS011;46106;51.468;5.814;2022-09-12T03:57:38;100.28;;;35.17;;
60243;SDS011;46106;51.468;5.814;2022-09-12T04:00:08;103.15;;;36.38;;
60243;SDS011;46106;51.468;5.814;2022-09-12T04:02:36;124.95;;;42.88;;
60243;SDS011;46106;51.468;5.814;2022-09-12T04:05:02;107.90;;;37.50;;
60243;SDS011;46106;51.468;5.814;2022-09-12T04:07:34;89.85;;;33.63;;
60243;SDS011;46106;51.468;5.814;2022-09-12T04:10:02;128.88;;;41.00;;
60243;SDS011;46106;51.468;5.814;2022-09-12T04:12:31;138.07;;;42.58;;
60243;SDS011;46106;51.468;5.814;2022-09-12T04:14:59;143.55;;;45.72;;
60243;SDS011;46106;51.468;5.814;2022-09-12T04:17:25;134.45;;;44.22;;
60243;SDS011;46106;51.468;5.814;2022-09-12T04:19:52;151.38;;;46.95;;
60243;SDS011;46106;51.468;5.814;2022-09-12T04:22:22;142.35;;;45.28;;
60243;SDS011;46106;51.468;5.814;2022-09-12T04:24:51;138.82;;;43.70;;
60243;SDS011;46106;51.468;5.814;2022-09-12T04:27:21;159.23;;;48.55;;
60243;SDS011;46106;51.468;5.814;2022-09-12T04:29:50;154.27;;;39.03;;
60243;SDS011;46106;51.468;5.814;2022-09-12T04:32:21;105.47;;;35.10;;
60243;SDS011;46106;51.468;5.814;2022-09-12T04:34:48;96.22;;;33.72;;
60243;SDS011;46106;51.468;5.814;2022-09-12T04:37:17;115.18;;;35.50;;
60243;SDS011;46106;51.468;5.814;2022-09-12T04:39:48;106.85;;;35.55;;
60243;SDS011;46106;51.468;5.814;2022-09-12T04:42:19;95.65;;;34.03;;
60243;SDS011;46106;51.468;5.814;2022-09-12T04:44:52;108.43;;;36.38;;
60243;SDS011;46106;51.468;5.814;2022-09-12T04:47:18;108.53;;;37.30;;
60243;SDS011;46106;51.468;5.814;2022-09-12T04:49:44;112.15;;;35.78;;
60243;SDS011;46106;51.468;5.814;2022-09-12T04:52:10;133.90;;;40.35;;
60243;SDS011;46106;51.468;5.814;2022-09-12T04:54:36;127.80;;;39.30;;
60243;SDS011;46106;51.468;5.814;2022-09-12T04:57:04;136.73;;;41.00;;
60243;SDS011;46106;51.468;5.814;2022-09-12T04:59:37;123.45;;;39.88;;
60243;SDS011;46106;51.468;5.814;2022-09-12T05:02:05;135.70;;;41.83;;
60243;SDS011;46106;51.468;5.814;2022-09-12T05:04:33;131.38;;;40.80;;
60243;SDS011;46106;51.468;5.814;2022-09-12T05:07:00;151.15;;;44.53;;
60243;SDS011;46106;51.468;5.814;2022-09-12T05:09:27;146.75;;;44.03;;
60243;SDS011;46106;51.468;5.814;2022-09-12T05:11:54;132.00;;;40.17;;
60243;SDS011;46106;51.468;5.814;2022-09-12T05:14:30;136.75;;;41.42;;
60243;SDS011;46106;51.468;5.814;2022-09-12T05:16:57;124.68;;;38.22;;
60243;SDS011;46106;51.468;5.814;2022-09-12T05:19:25;131.40;;;39.08;;
60243;SDS011;46106;51.468;5.814;2022-09-12T05:21:55;144.07;;;39.65;;
60243;SDS011;46106;51.468;5.814;2022-09-12T05:24:24;129.27;;;42.63;;
60243;SDS011;46106;51.468;5.814;2022-09-12T05:26:50;133.07;;;42.53;;
60243;SDS011;46106;51.468;5.814;2022-09-12T05:29:16;146.90;;;43.40;;
60243;SDS011;46106;51.468;5.814;2022-09-12T05:31:45;131.00;;;42.60;;
60243;SDS011;46106;51.468;5.814;2022-09-12T05:34:18;151.13;;;45.80;;
60243;SDS011;46106;51.468;5.814;2022-09-12T05:36:45;160.02;;;46.42;;
60243;SDS011;46106;51.468;5.814;2022-09-12T05:39:11;158.65;;;49.33;;
60243;SDS011;46106;51.468;5.814;2022-09-12T05:41:37;163.20;;;49.20;;
60243;SDS011;46106;51.468;5.814;2022-09-12T05:44:06;175.55;;;50.80;;
60243;SDS011;46106;51.468;5.814;2022-09-12T05:46:37;158.85;;;49.00;;
60243;SDS011;46106;51.468;5.814;2022-09-12T05:49:10;170.60;;;48.67;;
60243;SDS011;46106;51.468;5.814;2022-09-12T05:51:40;157.40;;;49.25;;
60243;SDS011;46106;51.468;5.814;2022-09-12T05:54:12;158.27;;;46.38;;
60243;SDS011;46106;51.468;5.814;2022-09-12T05:56:40;142.93;;;46.53;;
60243;SDS011;46106;51.468;5.814;2022-09-12T05:59:13;159.45;;;48.92;;
60243;SDS011;46106;51.468;5.814;2022-09-12T06:01:41;145.17;;;47.67;;
60243;SDS011;46106;51.468;5.814;2022-09-12T06:04:07;140.65;;;46.47;;
60243;SDS011;46106;51.468;5.814;2022-09-12T06:06:35;153.18;;;47.70;;
60243;SDS011;46106;51.468;5.814;2022-09-12T06:09:08;177.63;;;53.88;;
60243;SDS011;46106;51.468;5.814;2022-09-12T06:11:35;176.02;;;52.15;;
60243;SDS011;46106;51.468;5.814;2022-09-12T06:14:09;181.85;;;53.38;;
60243;SDS011;46106;51.468;5.814;2022-09-12T06:16:45;175.50;;;52.40;;
60243;SDS011;46106;51.468;5.814;2022-09-12T06:19:16;179.38;;;52.25;;
60243;SDS011;46106;51.468;5.814;2022-09-12T06:21:47;171.25;;;52.92;;
60243;SDS011;46106;51.468;5.814;2022-09-12T06:24:16;166.90;;;50.17;;
60243;SDS011;46106;51.468;5.814;2022-09-12T06:26:44;166.05;;;52.13;;
60243;SDS011;46106;51.468;5.814;2022-09-12T06:29:17;173.18;;;52.90;;
60243;SDS011;46106;51.468;5.814;2022-09-12T06:31:44;176.65;;;51.00;;
60243;SDS011;46106;51.468;5.814;2022-09-12T06:34:19;163.00;;;51.50;;
60243;SDS011;46106;51.468;5.814;2022-09-12T06:36:46;186.80;;;54.88;;
60243;SDS011;46106;51.468;5.814;2022-09-12T06:39:15;185.68;;;56.33;;
60243;SDS011;46106;51.468;5.814;2022-09-12T06:41:46;190.88;;;55.30;;
60243;SDS011;46106;51.468;5.814;2022-09-12T06:44:19;193.63;;;58.97;;
60243;SDS011;46106;51.468;5.814;2022-09-12T06:46:47;215.77;;;65.00;;
60243;SDS011;46106;51.468;5.814;2022-09-12T06:49:15;195.90;;;62.55;;
60243;SDS011;46106;51.468;5.814;2022-09-12T06:51:42;225.05;;;66.03;;
60243;SDS011;46106;51.468;5.814;2022-09-12T06:54:16;196.07;;;63.75;;
60243;SDS011;46106;51.468;5.814;2022-09-12T06:56:47;210.77;;;64.00;;
60243;SDS011;46106;51.468;5.814;2022-09-12T06:59:14;210.90;;;66.82;;
60243;SDS011;46106;51.468;5.814;2022-09-12T07:01:41;215.07;;;65.55;;
60243;SDS011;46106;51.468;5.814;2022-09-12T07:04:07;214.93;;;66.93;;
60243;SDS011;46106;51.468;5.814;2022-09-12T07:06:37;206.75;;;67.50;;
60243;SDS011;46106;51.468;5.814;2022-09-12T07:09:08;211.98;;;69.82;;
60243;SDS011;46106;51.468;5.814;2022-09-12T07:11:36;219.48;;;72.15;;
60243;SDS011;46106;51.468;5.814;2022-09-12T07:14:06;202.95;;;71.00;;
60243;SDS011;46106;51.468;5.814;2022-09-12T07:16:42;226.25;;;73.22;;
60243;SDS011;46106;51.468;5.814;2022-09-12T07:19:12;193.45;;;65.78;;
60243;SDS011;46106;51.468;5.814;2022-09-12T07:21:39;207.63;;;65.18;;
60243;SDS011;46106;51.468;5.814;2022-09-12T07:24:07;184.43;;;63.95;;
60243;SDS011;46106;51.468;5.814;2022-09-12T07:26:34;195.43;;;64.07;;
60243;SDS011;46106;51.468;5.814;2022-09-12T07:29:02;171.38;;;59.20;;
60243;SDS011;46106;51.468;5.814;2022-09-12T07:31:31;175.48;;;61.17;;
60243;SDS011;46106;51.468;5.814;2022-09-12T07:33:58;162.98;;;56.10;;
60243;SDS011;46106;51.468;5.814;2022-09-12T07:36:25;178.52;;;57.63;;
60243;SDS011;46106;51.468;5.814;2022-09-12T07:38:54;157.30;;;57.75;;
60243;SDS011;46106;51.468;5.814;2022-09-12T07:41:23;157.73;;;57.90;;
60243;SDS011;46106;51.468;5.814;2022-09-12T07:43:56;165.80;;;58.53;;
60243;SDS011;46106;51.468;5.814;2022-09-12T07:46:23;156.77;;;57.92;;
60243;SDS011;46106;51.468;5.814;2022-09-12T07:48:52;161.80;;;58.17;;
60243;SDS011;46106;51.468;5.814;2022-09-12T07:51:22;153.55;;;59.42;;
60243;SDS011;46106;51.468;5.814;2022-09-12T07:53:52;164.77;;;61.35;;
60243;SDS011;46106;51.468;5.814;2022-09-12T07:56:18;160.75;;;59.75;;
60243;SDS011;46106;51.468;5.814;2022-09-12T07:58:44;163.35;;;60.78;;
60243;SDS011;46106;51.468;5.814;2022-09-12T08:01:16;148.95;;;57.85;;
60243;SDS011;46106;51.468;5.814;2022-09-12T08:03:52;137.02;;;51.17;;
60243;SDS011;46106;51.468;5.814;2022-09-12T08:06:19;138.00;;;54.47;;
60243;SDS011;46106;51.468;5.814;2022-09-12T08:08:53;136.48;;;50.40;;
60243;SDS011;46106;51.468;5.814;2022-09-12T08:11:22;129.85;;;52.17;;
60243;SDS011;46106;51.468;5.814;2022-09-12T08:13:57;127.25;;;47.38;;
60243;SDS011;46106;51.468;5.814;2022-09-12T08:16:26;118.00;;;49.10;;
60243;SDS011;46106;51.468;5.814;2022-09-12T08:19:02;102.60;;;41.78;;
60243;SDS011;46106;51.468;5.814;2022-09-12T08:21:30;96.35;;;41.38;;
60243;SDS011;46106;51.468;5.814;2022-09-12T08:24:05;96.05;;;39.95;;
60243;SDS011;46106;51.468;5.814;2022-09-12T08:26:32;88.72;;;40.30;;
60243;SDS011;46106;51.468;5.814;2022-09-12T08:29:00;90.38;;;36.60;;
60243;SDS011;46106;51.468;5.814;2022-09-12T08:31:28;86.57;;;37.08;;
60243;SDS011;46106;51.468;5.814;2022-09-12T08:34:00;81.73;;;34.03;;
60243;SDS011;46106;51.468;5.814;2022-09-12T08:36:26;86.45;;;37.00;;
60243;SDS011;46106;51.468;5.814;2022-09-12T08:38:53;82.93;;;35.70;;
60243;SDS011;46106;51.468;5.814;2022-09-12T08:41:25;83.05;;;35.97;;
60243;SDS011;46106;51.468;5.814;2022-09-12T08:47:51;85.55;;;37.03;;
60243;SDS011;46106;51.468;5.814;2022-09-12T08:57:51;72.70;;;32.97;;
60243;SDS011;46106;51.468;5.814;2022-09-12T09:00:19;76.35;;;34.55;;
60243;SDS011;46106;51.468;5.814;2022-09-12T09:05:44;74.50;;;34.05;;
60243;SDS011;46106;51.468;5.814;2022-09-12T09:14:05;64.33;;;30.53;;
60243;SDS011;46106;51.468;5.814;2022-09-12T09:17:07;67.00;;;31.35;;
60243;SDS011;46106;51.468;5.814;2022-09-12T09:19:41;67.10;;;29.00;;
60243;SDS011;46106;51.468;5.814;2022-09-12T09:22:15;60.03;;;30.15;;
60243;SDS011;46106;51.468;5.814;2022-09-12T09:24:48;55.05;;;27.77;;
60243;SDS011;46106;51.468;5.814;2022-09-12T09:30:16;54.22;;;27.40;;
60243;SDS011;46106;51.468;5.814;2022-09-12T09:32:51;55.78;;;27.52;;
60243;SDS011;46106;51.468;5.814;2022-09-12T09:38:15;47.90;;;25.27;;
60243;SDS011;46106;51.468;5.814;2022-09-12T09:43:27;51.08;;;24.75;;
60243;SDS011;46106;51.468;5.814;2022-09-12T09:45:53;50.65;;;26.80;;
60243;SDS011;46106;51.468;5.814;2022-09-12T09:48:26;53.92;;;25.70;;
60243;SDS011;46106;51.468;5.814;2022-09-12T09:50:55;49.38;;;24.92;;
60243;SDS011;46106;51.468;5.814;2022-09-12T09:56:06;43.28;;;24.42;;
60243;SDS011;46106;51.468;5.814;2022-09-12T09:58:37;40.47;;;21.92;;
60243;SDS011;46106;51.468;5.814;2022-09-12T10:01:14;41.50;;;24.70;;
60243;SDS011;46106;51.468;5.814;2022-09-12T10:03:49;36.75;;;18.88;;
60243;SDS011;46106;51.468;5.814;2022-09-12T10:08:47;33.08;;;19.38;;
60243;SDS011;46106;51.468;5.814;2022-09-12T10:11:19;27.35;;;17.45;;
60243;SDS011;46106;51.468;5.814;2022-09-12T10:13:52;34.47;;;18.77;;
60243;SDS011;46106;51.468;5.814;2022-09-12T10:16:24;37.35;;;19.27;;
60243;SDS011;46106;51.468;5.814;2022-09-12T10:18:55;34.45;;;17.00;;
60243;SDS011;46106;51.468;5.814;2022-09-12T10:24:20;21.52;;;15.18;;
60243;SDS011;46106;51.468;5.814;2022-09-12T10:32:10;47.42;;;16.63;;
60243;SDS011;46106;51.468;5.814;2022-09-12T10:34:52;27.50;;;16.15;;
60243;SDS011;46106;51.468;5.814;2022-09-12T10:37:29;26.73;;;16.77;;
60243;SDS011;46106;51.468;5.814;2022-09-12T10:40:03;25.08;;;14.75;;
60243;SDS011;46106;51.468;5.814;2022-09-12T10:45:17;27.90;;;17.63;;
60243;SDS011;46106;51.468;5.814;2022-09-12T10:47:50;25.05;;;15.45;;
60243;SDS011;46106;51.468;5.814;2022-09-12T10:50:29;23.38;;;13.35;;
60243;SDS011;46106;51.468;5.814;2022-09-12T10:53:12;24.50;;;15.02;;
60243;SDS011;46106;51.468;5.814;2022-09-12T10:58:46;19.88;;;13.15;;
60243;SDS011;46106;51.468;5.814;2022-09-12T11:19:00;11.57;;;7.50;;
60243;SDS011;46106;51.468;5.814;2022-09-12T11:21:48;16.33;;;9.50;;
60243;SDS011;46106;51.468;5.814;2022-09-12T11:31:02;14.68;;;6.60;;
60243;SDS011;46106;51.468;5.814;2022-09-12T11:33:39;9.68;;;7.00;;
60243;SDS011;46106;51.468;5.814;2022-09-12T11:36:11;12.38;;;5.20;;
60243;SDS011;46106;51.468;5.814;2022-09-12T11:39:20;11.50;;;5.38;;
60243;SDS011;46106;51.468;5.814;2022-09-12T11:41:57;9.95;;;5.78;;
60243;SDS011;46106;51.468;5.814;2022-09-12T11:44:28;16.08;;;6.40;;
60243;SDS011;46106;51.468;5.814;2022-09-12T11:47:09;9.85;;;5.80;;
60243;SDS011;46106;51.468;5.814;2022-09-12T11:49:38;9.93;;;5.75;;
60243;SDS011;46106;51.468;5.814;2022-09-12T11:52:23;12.48;;;6.03;;
60243;SDS011;46106;51.468;5.814;2022-09-12T11:55:09;9.50;;;5.32;;
60243;SDS011;46106;51.468;5.814;2022-09-12T11:57:57;13.25;;;5.15;;
60243;SDS011;46106;51.468;5.814;2022-09-12T12:08:38;7.35;;;3.70;;
60243;SDS011;46106;51.468;5.814;2022-09-12T12:11:07;7.13;;;4.00;;
60243;SDS011;46106;51.468;5.814;2022-09-12T12:13:35;6.90;;;4.25;;
60243;SDS011;46106;51.468;5.814;2022-09-12T12:16:22;5.45;;;3.78;;
60243;SDS011;46106;51.468;5.814;2022-09-12T12:18:59;5.78;;;3.83;;
60243;SDS011;46106;51.468;5.814;2022-09-12T12:21:34;7.95;;;4.60;;
60243;SDS011;46106;51.468;5.814;2022-09-12T12:24:22;10.45;;;5.53;;
60243;SDS011;46106;51.468;5.814;2022-09-12T12:26:53;6.70;;;4.00;;
60243;SDS011;46106;51.468;5.814;2022-09-12T12:29:35;7.40;;;4.63;;
60243;SDS011;46106;51.468;5.814;2022-09-12T12:34:31;20.30;;;6.07;;
60243;SDS011;46106;51.468;5.814;2022-09-12T12:40:00;11.40;;;6.20;;
60243;SDS011;46106;51.468;5.814;2022-09-12T12:52:50;17.38;;;7.53;;
60243;SDS011;46106;51.468;5.814;2022-09-12T12:57:48;15.75;;;6.43;;
60243;SDS011;46106;51.468;5.814;2022-09-12T13:03:01;9.00;;;6.55;;
60243;SDS011;46106;51.468;5.814;2022-09-12T13:08:10;10.43;;;6.88;;
60243;SDS011;46106;51.468;5.814;2022-09-12T13:10:47;11.45;;;7.32;;
60243;SDS011;46106;51.468;5.814;2022-09-12T13:13:19;13.00;;;6.45;;
60243;SDS011;46106;51.468;5.814;2022-09-12T13:15:51;11.43;;;5.75;;
60243;SDS011;46106;51.468;5.814;2022-09-12T13:18:23;8.55;;;5.43;;
60243;SDS011;46106;51.468;5.814;2022-09-12T13:23:42;9.90;;;6.15;;
60243;SDS011;46106;51.468;5.814;2022-09-12T13:26:13;14.00;;;5.95;;
60243;SDS011;46106;51.468;5.814;2022-09-12T13:29:08;12.35;;;6.68;;
60243;SDS011;46106;51.468;5.814;2022-09-12T13:31:39;12.02;;;6.53;;
60243;SDS011;46106;51.468;5.814;2022-09-12T13:34:07;9.07;;;6.60;;
60243;SDS011;46106;51.468;5.814;2022-09-12T13:39:16;12.82;;;7.30;;
60243;SDS011;46106;51.468;5.814;2022-09-12T13:44:21;11.05;;;5.38;;
60243;SDS011;46106;51.468;5.814;2022-09-12T13:46:52;14.20;;;6.10;;
60243;SDS011;46106;51.468;5.814;2022-09-12T13:49:37;10.55;;;6.47;;
60243;SDS011;46106;51.468;5.814;2022-09-12T13:52:16;12.65;;;5.88;;
60243;SDS011;46106;51.468;5.814;2022-09-12T13:54:47;9.27;;;6.07;;
60243;SDS011;46106;51.468;5.814;2022-09-12T14:00:13;9.73;;;6.93;;
60243;SDS011;46106;51.468;5.814;2022-09-12T14:02:48;10.65;;;6.82;;
60243;SDS011;46106;51.468;5.814;2022-09-12T14:05:34;9.60;;;5.28;;
60243;SDS011;46106;51.468;5.814;2022-09-12T14:08:07;10.10;;;5.10;;
60243;SDS011;46106;51.468;5.814;2022-09-12T14:10:41;10.82;;;5.05;;
60243;SDS011;46106;51.468;5.814;2022-09-12T14:13:14;6.95;;;5.28;;
60243;SDS011;46106;51.468;5.814;2022-09-12T14:15:46;7.28;;;4.25;;
60243;SDS011;46106;51.468;5.814;2022-09-12T14:18:28;9.45;;;5.72;;
60243;SDS011;46106;51.468;5.814;2022-09-12T14:21:04;7.72;;;4.35;;
60243;SDS011;46106;51.468;5.814;2022-09-12T14:23:56;8.80;;;4.82;;
60243;SDS011;46106;51.468;5.814;2022-09-12T14:26:22;8.88;;;3.80;;
60243;SDS011;46106;51.468;5.814;2022-09-12T14:28:53;8.55;;;5.43;;
60243;SDS011;46106;51.468;5.814;2022-09-12T14:31:29;6.85;;;4.25;;
60243;SDS011;46106;51.468;5.814;2022-09-12T14:34:08;9.35;;;4.28;;
60243;SDS011;46106;51.468;5.814;2022-09-12T14:36:50;7.40;;;3.95;;
60243;SDS011;46106;51.468;5.814;2022-09-12T14:44:55;11.43;;;4.22;;
60243;SDS011;46106;51.468;5.814;2022-09-12T14:47:25;6.93;;;3.70;;
60243;SDS011;46106;51.468;5.814;2022-09-12T14:49:52;8.27;;;4.07;;
60243;SDS011;46106;51.468;5.814;2022-09-12T14:52:32;4.60;;;3.30;;
60243;SDS011;46106;51.468;5.814;2022-09-12T14:55:00;11.77;;;4.68;;
60243;SDS011;46106;51.468;5.814;2022-09-12T14:57:32;6.38;;;3.08;;
60243;SDS011;46106;51.468;5.814;2022-09-12T15:02:43;6.03;;;3.25;;
60243;SDS011;46106;51.468;5.814;2022-09-12T15:07:58;5.50;;;2.95;;
60243;SDS011;46106;51.468;5.814;2022-09-12T15:10:34;10.43;;;3.58;;
60243;SDS011;46106;51.468;5.814;2022-09-12T15:15:36;3.40;;;2.83;;
60243;SDS011;46106;51.468;5.814;2022-09-12T15:18:08;4.82;;;3.15;;
60243;SDS011;46106;51.468;5.814;2022-09-12T15:20:36;4.93;;;3.35;;
60243;SDS011;46106;51.468;5.814;2022-09-12T15:23:06;9.73;;;2.95;;
60243;SDS011;46106;51.468;5.814;2022-09-12T15:25:40;5.25;;;3.33;;
60243;SDS011;46106;51.468;5.814;2022-09-12T15:28:12;3.47;;;2.90;;
60243;SDS011;46106;51.468;5.814;2022-09-12T15:30:53;5.95;;;2.50;;
60243;SDS011;46106;51.468;5.814;2022-09-12T15:33:22;7.65;;;2.60;;
60243;SDS011;46106;51.468;5.814;2022-09-12T15:35:57;3.08;;;2.28;;
60243;SDS011;46106;51.468;5.814;2022-09-12T15:38:30;2.90;;;2.10;;
60243;SDS011;46106;51.468;5.814;2022-09-12T15:40:56;2.60;;;1.90;;
60243;SDS011;46106;51.468;5.814;2022-09-12T15:43:22;3.83;;;2.10;;
60243;SDS011;46106;51.468;5.814;2022-09-12T15:46:00;4.20;;;2.28;;
60243;SDS011;46106;51.468;5.814;2022-09-12T15:48:40;3.58;;;2.42;;
60243;SDS011;46106;51.468;5.814;2022-09-12T15:51:12;10.55;;;2.58;;
60243;SDS011;46106;51.468;5.814;2022-09-12T15:53:49;2.83;;;2.30;;
60243;SDS011;46106;51.468;5.814;2022-09-12T15:56:25;2.47;;;1.98;;
60243;SDS011;46106;51.468;5.814;2022-09-12T15:58:53;6.55;;;2.72;;
60243;SDS011;46106;51.468;5.814;2022-09-12T16:01:25;7.88;;;3.03;;
60243;SDS011;46106;51.468;5.814;2022-09-12T16:03:51;5.47;;;3.40;;
60243;SDS011;46106;51.468;5.814;2022-09-12T16:06:17;6.00;;;3.65;;
60243;SDS011;46106;51.468;5.814;2022-09-12T16:08:47;4.07;;;3.20;;
60243;SDS011;46106;51.468;5.814;2022-09-12T16:11:18;5.97;;;2.95;;
60243;SDS011;46106;51.468;5.814;2022-09-12T16:13:52;5.93;;;3.13;;
60243;SDS011;46106;51.468;5.814;2022-09-12T16:16:21;6.72;;;3.30;;
60243;SDS011;46106;51.468;5.814;2022-09-12T16:18:47;4.75;;;2.95;;
60243;SDS011;46106;51.468;5.814;2022-09-12T16:21:16;6.65;;;2.90;;
60243;SDS011;46106;51.468;5.814;2022-09-12T16:23:43;3.58;;;2.50;;
60243;SDS011;46106;51.468;5.814;2022-09-12T16:26:11;8.57;;;3.05;;
60243;SDS011;46106;51.468;5.814;2022-09-12T16:28:37;6.70;;;3.30;;
60243;SDS011;46106;51.468;5.814;2022-09-12T16:31:04;4.82;;;3.30;;
60243;SDS011;46106;51.468;5.814;2022-09-12T16:33:32;3.88;;;3.47;;
60243;SDS011;46106;51.468;5.814;2022-09-12T16:36:08;5.43;;;3.00;;
60243;SDS011;46106;51.468;5.814;2022-09-12T16:38:39;5.88;;;2.80;;
60243;SDS011;46106;51.468;5.814;2022-09-12T16:41:06;3.97;;;2.70;;
60243;SDS011;46106;51.468;5.814;2022-09-12T16:43:33;6.95;;;2.40;;
60243;SDS011;46106;51.468;5.814;2022-09-12T16:46:12;4.75;;;3.20;;
60243;SDS011;46106;51.468;5.814;2022-09-12T16:48:40;3.60;;;3.30;;
60243;SDS011;46106;51.468;5.814;2022-09-12T16:51:14;5.13;;;3.03;;
60243;SDS011;46106;51.468;5.814;2022-09-12T16:53:49;8.90;;;2.92;;
60243;SDS011;46106;51.468;5.814;2022-09-12T16:56:15;7.32;;;3.10;;
60243;SDS011;46106;51.468;5.814;2022-09-12T16:58:44;4.07;;;2.42;;
60243;SDS011;46106;51.468;5.814;2022-09-12T17:01:11;6.82;;;2.40;;
60243;SDS011;46106;51.468;5.814;2022-09-12T17:06:10;6.47;;;2.75;;
60243;SDS011;46106;51.468;5.814;2022-09-12T17:08:40;8.00;;;2.67;;
60243;SDS011;46106;51.468;5.814;2022-09-12T17:11:11;9.10;;;2.40;;
60243;SDS011;46106;51.468;5.814;2022-09-12T17:13:48;8.73;;;2.10;;
60243;SDS011;46106;51.468;5.814;2022-09-12T17:16:20;6.25;;;2.50;;
60243;SDS011;46106;51.468;5.814;2022-09-12T17:18:56;2.95;;;2.42;;
60243;SDS011;46106;51.468;5.814;2022-09-12T17:21:31;5.85;;;2.30;;
60243;SDS011;46106;51.468;5.814;2022-09-12T17:23:58;3.50;;;2.10;;
60243;SDS011;46106;51.468;5.814;2022-09-12T17:26:26;4.25;;;2.13;;
60243;SDS011;46106;51.468;5.814;2022-09-12T17:28:59;6.07;;;2.33;;
60243;SDS011;46106;51.468;5.814;2022-09-12T17:31:26;2.83;;;1.73;;
60243;SDS011;46106;51.468;5.814;2022-09-12T17:33:54;12.40;;;1.98;;
60243;SDS011;46106;51.468;5.814;2022-09-12T17:36:21;3.72;;;2.05;;
60243;SDS011;46106;51.468;5.814;2022-09-12T17:38:47;6.57;;;1.95;;